Terminal Aerodrome Forecast
Issued by NWS Omaha/Valley, NE

Home | Current Version | Previous Version | Text Only | Print | Product List | Glossary Off
Versions: 1 2 3 4 5 6 7 8 9 10 11 12 13 14 15 16 17 18 19 20 21 22 23 24 25 26 27 28 29 30 31 32 33 34 35 36 37 38

000
FTUS43 KOAX 261720
TAFOFK
TAF
KOFK 261720Z 2618/2718 36018KT 6SM BR OVC008
     FM262300 34011KT 1 1/2SM -SN BR OVC007
     FM270900 33010KT 4SM BR OVC007
     FM271100 31008KT P6SM OVC015
     FM271400 31007KT P6SM OVC050=

USA.gov is the U.S. government's official web portal to all federal, state and local government web resources and services.